createdAt,value
2023-03-06T00:00:51.323Z,26.88
2023-03-06T00:03:19.088Z,26.27
2023-03-06T00:05:48.266Z,27.50
2023-03-06T00:08:16.617Z,26.65
2023-03-06T00:10:44.521Z,26.67
2023-03-06T00:13:14.685Z,26.67
2023-03-06T00:15:43.418Z,26.55
2023-03-06T00:18:11.100Z,27.30
2023-03-06T00:20:41.017Z,26.27
2023-03-06T00:23:11.066Z,26.85
2023-03-06T00:25:39.115Z,26.55
2023-03-06T00:28:06.975Z,24.70
2023-03-06T00:30:34.914Z,26.08
2023-03-06T00:33:02.580Z,26.35
2023-03-06T00:35:30.297Z,25.58
2023-03-06T00:37:59.987Z,25.77
2023-03-06T00:42:56.566Z,24.37
2023-03-06T00:45:24.663Z,24.63
2023-03-06T00:47:52.355Z,26.33
2023-03-06T00:50:20.091Z,25.77
2023-03-06T00:52:47.987Z,25.83
2023-03-06T00:55:15.707Z,25.80
2023-03-06T00:57:44.743Z,25.65
2023-03-06T01:00:14.199Z,26.00
2023-03-06T01:02:42.342Z,26.05
2023-03-06T01:05:10.864Z,25.10
2023-03-06T01:07:38.878Z,26.25
2023-03-06T01:10:07.869Z,26.27
2023-03-06T01:12:35.535Z,26.02
2023-03-06T01:15:05.563Z,25.67
2023-03-06T01:17:33.301Z,25.05
2023-03-06T01:20:00.975Z,25.73
2023-03-06T01:22:28.945Z,26.58
2023-03-06T01:24:56.613Z,25.17
2023-03-06T01:27:24.385Z,24.73
2023-03-06T01:29:52.211Z,27.30
2023-03-06T01:32:21.617Z,27.73
2023-03-06T01:34:49.652Z,27.00
2023-03-06T01:37:17.664Z,26.60
2023-03-06T01:39:45.554Z,26.25
2023-03-06T01:42:13.312Z,26.85
2023-03-06T01:45:00.040Z,25.73
2023-03-06T01:47:29.397Z,26.20
2023-03-06T01:49:58.758Z,27.67
2023-03-06T01:52:30.580Z,25.02
2023-03-06T01:55:03.460Z,26.00
2023-03-06T01:57:35.719Z,27.08
2023-03-06T02:00:08.181Z,26.70
2023-03-06T02:02:38.428Z,27.45
2023-03-06T02:05:07.258Z,26.83
2023-03-06T02:07:35.865Z,27.90
2023-03-06T02:10:04.246Z,26.75
2023-03-06T02:12:32.313Z,26.90
2023-03-06T02:15:00.254Z,26.73
2023-03-06T02:17:29.024Z,26.65
2023-03-06T02:20:04.712Z,27.27
2023-03-06T02:22:38.823Z,26.58
2023-03-06T02:25:15.034Z,27.17
2023-03-06T02:27:44.539Z,28.73
2023-03-06T02:30:17.522Z,27.92
2023-03-06T02:32:45.546Z,27.08
2023-03-06T02:35:19.775Z,28.50
2023-03-06T02:37:48.301Z,28.95
2023-03-06T02:40:18.252Z,27.60
2023-03-06T02:42:51.998Z,28.98
2023-03-06T02:45:27.064Z,28.23
2023-03-06T02:47:55.174Z,28.83
2023-03-06T02:50:22.846Z,29.35
2023-03-06T02:52:50.526Z,29.10
2023-03-06T02:55:18.600Z,28.77
2023-03-06T02:57:46.477Z,28.73
2023-03-06T03:00:17.190Z,29.60
2023-03-06T03:02:45.664Z,30.27
2023-03-06T03:05:13.963Z,28.52
2023-03-06T03:07:41.648Z,29.38
2023-03-06T03:10:11.036Z,26.08
2023-03-06T03:12:38.789Z,28.65
2023-03-06T03:15:07.587Z,29.10
2023-03-06T03:17:38.744Z,30.02
2023-03-06T03:20:09.399Z,30.48
2023-03-06T03:22:37.078Z,28.33
2023-03-06T03:25:05.584Z,28.92
2023-03-06T03:27:33.277Z,28.38
2023-03-06T03:30:01.493Z,29.15
2023-03-06T03:32:29.626Z,28.45
2023-03-06T03:34:58.662Z,30.10
2023-03-06T03:37:26.341Z,29.38
2023-03-06T03:39:54.362Z,28.27
2023-03-06T03:42:21.995Z,29.33
2023-03-06T03:44:49.693Z,29.20
2023-03-06T03:47:17.822Z,30.63
2023-03-06T03:49:45.697Z,30.60
2023-03-06T03:52:14.734Z,30.23
2023-03-06T03:54:43.034Z,30.10
2023-03-06T03:57:10.684Z,30.30
2023-03-06T03:59:38.346Z,29.90
2023-03-06T04:02:06.536Z,30.10
2023-03-06T04:04:34.230Z,31.45
2023-03-06T04:07:01.928Z,31.95
2023-03-06T04:09:31.332Z,30.30
2023-03-06T04:11:58.989Z,30.90
2023-03-06T04:14:26.812Z,30.65
2023-03-06T04:16:54.900Z,28.90
2023-03-06T04:19:22.581Z,29.42
2023-03-06T04:21:50.372Z,30.20
2023-03-06T04:24:18.332Z,30.23
2023-03-06T04:26:47.359Z,28.92
2023-03-06T04:29:15.049Z,30.02
2023-03-06T04:31:43.205Z,29.70
2023-03-06T04:34:10.862Z,30.15
2023-03-06T04:36:38.573Z,28.42
2023-03-06T04:39:06.568Z,29.17
2023-03-06T04:41:34.319Z,28.70
2023-03-06T04:44:03.728Z,27.70
2023-03-06T04:46:31.668Z,29.33
2023-03-06T04:48:59.416Z,28.70
2023-03-06T04:51:27.653Z,27.90
2023-03-06T04:53:55.316Z,28.48
2023-03-06T04:56:23.262Z,28.65
2023-03-06T04:58:51.296Z,29.23
2023-03-06T05:01:20.543Z,28.40
2023-03-06T05:03:49.993Z,27.30
2023-03-06T05:06:17.655Z,29.00
2023-03-06T05:08:45.353Z,28.63
2023-03-06T05:11:13.365Z,29.05
2023-03-06T05:13:41.025Z,25.90
2023-03-06T05:16:09.893Z,28.70
2023-03-06T05:18:39.521Z,27.00
2023-03-06T05:21:07.988Z,28.83
2023-03-06T05:23:38.400Z,27.77
2023-03-06T05:26:08.670Z,27.80
2023-03-06T05:28:36.892Z,28.48
2023-03-06T05:31:04.759Z,28.00
2023-03-06T05:33:33.443Z,27.63
2023-03-06T05:36:02.492Z,28.02
2023-03-06T05:38:30.369Z,28.70
2023-03-06T05:40:58.282Z,28.70
2023-03-06T05:43:25.955Z,27.67
2023-03-06T05:46:01.742Z,18.10
2023-03-06T05:48:29.435Z,22.60
2023-03-06T05:50:57.996Z,27.42
2023-03-06T05:53:28.030Z,25.33
2023-03-06T05:55:59.773Z,26.27
2023-03-06T05:58:27.522Z,27.45
2023-03-06T06:00:55.546Z,26.55
2023-03-06T06:03:23.855Z,25.85
2023-03-06T06:05:52.111Z,26.25
2023-03-06T06:08:20.274Z,28.42
2023-03-06T06:10:51.010Z,27.45
2023-03-06T06:13:20.777Z,27.05
2023-03-06T06:15:48.467Z,26.38
2023-03-06T06:18:16.194Z,27.55
2023-03-06T06:20:44.096Z,27.90
2023-03-06T06:23:12.357Z,29.50
2023-03-06T06:25:40.288Z,28.33
2023-03-06T06:28:09.501Z,28.40
2023-03-06T06:30:37.223Z,28.92
2023-03-06T06:33:04.893Z,26.23
2023-03-06T06:35:37.097Z,27.40
2023-03-06T06:38:04.887Z,28.08
2023-03-06T06:40:32.560Z,29.00
2023-03-06T06:43:00.516Z,28.95
2023-03-06T06:45:29.551Z,27.80
2023-03-06T06:47:57.410Z,29.27
2023-03-06T06:50:25.251Z,28.67
2023-03-06T06:52:52.940Z,27.95
2023-03-06T06:55:20.612Z,29.63
2023-03-06T06:57:48.592Z,29.00
2023-03-06T07:00:17.903Z,31.23
2023-03-06T07:02:49.461Z,28.73
2023-03-06T07:05:17.296Z,30.10
2023-03-06T07:07:44.997Z,30.15
2023-03-06T07:10:15.550Z,29.65
2023-03-06T07:12:43.471Z,28.42
2023-03-06T07:15:14.524Z,29.02
2023-03-06T07:17:42.395Z,30.92
2023-03-06T07:20:12.878Z,30.88
2023-03-06T07:22:50.436Z,29.88
2023-03-06T07:25:19.094Z,30.58
2023-03-06T07:27:52.790Z,28.67
2023-03-06T07:30:21.772Z,30.45
2023-03-06T07:32:49.464Z,31.20
2023-03-06T07:35:20.499Z,30.17
2023-03-06T07:37:48.727Z,29.85
2023-03-06T07:40:16.410Z,32.05
2023-03-06T07:42:44.176Z,32.15
2023-03-06T07:45:13.115Z,32.25
2023-03-06T07:47:41.218Z,31.17
2023-03-06T07:50:09.756Z,31.40
2023-03-06T07:52:39.169Z,31.65
2023-03-06T07:55:07.940Z,30.60
2023-03-06T07:57:35.612Z,30.60
2023-03-06T08:00:03.885Z,30.52
2023-03-06T08:02:31.564Z,30.88
2023-03-06T08:04:59.267Z,31.75
2023-03-06T08:07:27.507Z,31.70
2023-03-06T08:09:56.543Z,31.08
2023-03-06T08:12:24.251Z,31.60
2023-03-06T08:14:52.521Z,31.15
2023-03-06T08:17:20.249Z,32.75
2023-03-06T08:19:47.902Z,32.13
2023-03-06T08:22:16.106Z,31.85
2023-03-06T08:24:43.748Z,32.22
2023-03-06T08:27:12.768Z,31.02
2023-03-06T08:29:40.621Z,30.90
2023-03-06T08:32:12.617Z,30.27
2023-03-06T08:34:43.038Z,30.02
2023-03-06T08:37:10.713Z,28.60
2023-03-06T08:39:38.379Z,30.00
2023-03-06T08:42:06.613Z,28.23
2023-03-06T08:44:35.639Z,27.10
2023-03-06T08:47:04.466Z,27.20
2023-03-06T08:49:32.169Z,27.67
2023-03-06T08:51:59.821Z,27.05
2023-03-06T08:54:27.456Z,27.52
2023-03-06T08:56:55.830Z,27.70
2023-03-06T08:59:24.777Z,27.35
2023-03-06T09:01:54.213Z,27.63
2023-03-06T09:04:22.888Z,28.52
2023-03-06T09:06:50.809Z,27.17
2023-03-06T09:09:18.650Z,27.80
2023-03-06T09:11:46.498Z,27.50
2023-03-06T09:14:14.458Z,29.20
2023-03-06T09:16:42.199Z,27.52
2023-03-06T09:19:11.991Z,28.58
2023-03-06T09:21:39.740Z,27.38
2023-03-06T09:24:07.898Z,26.63
2023-03-06T09:26:45.525Z,27.33
2023-03-06T09:29:16.263Z,27.08
2023-03-06T09:31:44.837Z,27.38
2023-03-06T09:34:14.117Z,27.45
2023-03-06T09:36:55.263Z,28.63
2023-03-06T09:39:25.884Z,27.15
2023-03-06T09:41:54.469Z,27.73
2023-03-06T09:44:26.491Z,27.42
2023-03-06T09:47:24.030Z,28.52
2023-03-06T09:50:13.244Z,27.48
2023-03-06T09:52:47.659Z,28.05
2023-03-06T09:55:20.467Z,27.80
2023-03-06T09:57:55.825Z,27.48
2023-03-06T10:00:30.404Z,26.80
2023-03-06T10:03:07.033Z,26.73
2023-03-06T10:05:42.011Z,27.73
2023-03-06T10:08:21.466Z,26.35
2023-03-06T10:10:55.713Z,27.35
2023-03-06T10:13:29.866Z,27.20
2023-03-06T10:16:08.231Z,27.48
2023-03-06T10:19:13.160Z,27.05
2023-03-06T10:21:54.069Z,26.48
2023-03-06T10:24:32.237Z,26.08
2023-03-06T10:27:04.699Z,25.98
2023-03-06T10:29:56.371Z,27.10
2023-03-06T10:32:47.508Z,26.38
2023-03-06T10:35:20.616Z,26.42
2023-03-06T10:37:51.194Z,27.42
2023-03-06T10:40:35.910Z,26.55
2023-03-06T10:43:11.427Z,26.70
2023-03-06T10:45:49.957Z,27.02
2023-03-06T10:48:22.591Z,25.48
2023-03-06T10:50:51.114Z,26.35
2023-03-06T10:53:26.635Z,26.65
2023-03-06T10:55:57.045Z,24.42
2023-03-06T10:58:28.441Z,25.42
2023-03-06T11:01:08.343Z,27.55
2023-03-06T11:03:37.224Z,24.05
2023-03-06T11:06:11.565Z,23.58
2023-03-06T11:08:44.015Z,24.70
2023-03-06T11:11:15.908Z,24.10
2023-03-06T11:13:59.168Z,22.83
2023-03-06T11:16:30.631Z,24.02
2023-03-06T11:19:00.787Z,23.30
2023-03-06T11:21:31.764Z,22.80
2023-03-06T11:24:08.017Z,22.65
2023-03-06T11:26:44.928Z,22.30
2023-03-06T11:29:38.718Z,21.98
2023-03-06T11:32:13.747Z,20.38
2023-03-06T11:34:50.597Z,20.70
2023-03-06T11:37:30.546Z,22.30
2023-03-06T11:40:08.387Z,22.38
2023-03-06T11:42:40.803Z,21.00
2023-03-06T11:45:21.207Z,21.50
2023-03-06T11:47:54.356Z,21.85
2023-03-06T11:50:31.322Z,21.80
2023-03-06T11:53:01.793Z,20.80
2023-03-06T11:55:46.109Z,21.70
2023-03-06T11:58:40.892Z,20.73
2023-03-06T12:01:14.701Z,19.92
2023-03-06T12:04:21.377Z,21.38
2023-03-06T12:06:57.900Z,23.80
2023-03-06T12:09:33.359Z,22.90
2023-03-06T12:15:08.612Z,23.30
2023-03-06T12:17:55.125Z,22.23
2023-03-06T12:20:49.765Z,22.23
2023-03-06T12:23:32.867Z,22.95
2023-03-06T12:26:07.760Z,21.98
2023-03-06T12:28:53.986Z,22.10
2023-03-06T12:31:47.566Z,20.15
2023-03-06T12:34:27.198Z,19.48
2023-03-06T12:39:47.062Z,17.13
2023-03-06T12:42:36.274Z,18.88
2023-03-06T12:45:28.990Z,19.42
2023-03-06T12:47:58.304Z,21.27
2023-03-06T12:50:29.331Z,21.27
2023-03-06T12:53:00.167Z,21.25
2023-03-06T12:55:28.533Z,22.27
2023-03-06T12:57:56.958Z,24.10
2023-03-06T13:01:06.065Z,23.15
2023-03-06T13:03:52.970Z,22.77
2023-03-06T13:06:36.614Z,23.35
2023-03-06T13:09:19.671Z,23.13
2023-03-06T13:12:16.567Z,26.35
2023-03-06T13:14:59.306Z,25.48
2023-03-06T13:17:37.962Z,25.05
2023-03-06T13:20:37.932Z,25.33
2023-03-06T13:23:42.860Z,24.05
2023-03-06T13:26:33.448Z,24.77
2023-03-06T13:29:02.088Z,25.27
2023-03-06T13:31:51.722Z,26.70
2023-03-06T13:37:54.685Z,26.38
2023-03-06T13:40:35.682Z,24.67
2023-03-06T13:43:27.543Z,26.95
2023-03-06T13:45:55.592Z,25.83
2023-03-06T13:48:44.194Z,26.45
2023-03-06T13:51:23.333Z,23.80
2023-03-06T13:54:28.524Z,25.17
2023-03-06T13:57:43.898Z,25.55
2023-03-06T14:00:48.999Z,25.30
2023-03-06T14:03:58.527Z,25.25
2023-03-06T14:09:23.671Z,23.98
2023-03-06T14:11:55.706Z,22.67
2023-03-06T14:14:33.618Z,22.02
2023-03-06T14:17:05.827Z,21.35
2023-03-06T14:19:38.650Z,22.40
2023-03-06T14:22:14.784Z,22.13
2023-03-06T14:24:52.964Z,22.48
2023-03-06T14:27:21.772Z,22.67
2023-03-06T14:29:49.914Z,22.07
2023-03-06T14:32:23.745Z,21.83
2023-03-06T14:34:51.635Z,21.33
2023-03-06T14:37:22.750Z,22.42
2023-03-06T14:39:50.836Z,20.25
2023-03-06T14:42:20.956Z,22.15
2023-03-06T14:44:50.097Z,20.85
2023-03-06T14:47:29.643Z,20.67
2023-03-06T14:50:21.529Z,21.67
2023-03-06T14:52:49.942Z,20.33
2023-03-06T14:55:20.828Z,18.98
2023-03-06T14:57:52.244Z,20.58
2023-03-06T15:00:24.249Z,19.27
2023-03-06T15:02:57.590Z,18.98
2023-03-06T15:05:28.993Z,20.33
2023-03-06T15:08:02.868Z,20.17
2023-03-06T15:10:33.195Z,20.70
2023-03-06T15:13:10.523Z,21.80
2023-03-06T15:15:38.437Z,20.38
2023-03-06T15:18:29.475Z,20.13
2023-03-06T15:21:08.739Z,20.85
2023-03-06T15:23:39.240Z,20.08
2023-03-06T15:26:23.905Z,19.60
2023-03-06T15:29:08.967Z,19.92
2023-03-06T15:31:38.994Z,20.73
2023-03-06T15:34:23.879Z,19.83
2023-03-06T15:36:56.787Z,18.75
2023-03-06T15:39:37.230Z,19.75
2023-03-06T15:42:19.253Z,17.13
2023-03-06T15:44:53.233Z,16.92
2023-03-06T15:47:22.044Z,15.45
2023-03-06T15:52:42.496Z,14.52
2023-03-06T15:55:13.643Z,15.23
2023-03-06T15:57:49.385Z,15.63
2023-03-06T16:00:27.961Z,15.65
2023-03-06T16:02:56.807Z,15.07
2023-03-06T16:05:27.596Z,14.93
2023-03-06T16:07:55.881Z,15.23
2023-03-06T16:10:27.599Z,12.85
2023-03-06T16:12:57.438Z,12.68
2023-03-06T16:15:29.633Z,12.18
2023-03-06T16:17:57.937Z,12.85
2023-03-06T16:20:29.845Z,12.68
2023-03-06T16:22:58.027Z,13.55
2023-03-06T16:25:28.724Z,14.45
2023-03-06T16:27:59.767Z,13.38
2023-03-06T16:30:30.109Z,13.85
2023-03-06T16:32:58.726Z,14.65
2023-03-06T16:35:28.812Z,14.88
2023-03-06T16:37:57.040Z,14.98
2023-03-06T16:40:27.123Z,14.60
2023-03-06T16:42:56.041Z,14.02
2023-03-06T16:45:25.620Z,14.88
2023-03-06T16:47:54.397Z,15.27
2023-03-06T16:50:25.704Z,14.77
2023-03-06T16:53:09.908Z,15.25
2023-03-06T16:55:38.267Z,17.77
2023-03-06T16:58:06.301Z,15.50
2023-03-06T17:00:34.267Z,16.90
2023-03-06T17:03:03.360Z,16.58
2023-03-06T17:05:34.290Z,16.60
2023-03-06T17:08:02.495Z,15.90
2023-03-06T17:10:33.416Z,15.45
2023-03-06T17:13:01.568Z,15.40
2023-03-06T17:15:29.589Z,16.23
2023-03-06T17:17:58.458Z,16.45
2023-03-06T17:20:26.438Z,15.60
2023-03-06T17:22:54.569Z,17.63
2023-03-06T17:25:23.057Z,15.20
2023-03-06T17:27:52.475Z,15.20
2023-03-06T17:30:20.675Z,14.57
2023-03-06T17:32:49.305Z,16.00
2023-03-06T17:35:17.498Z,15.15
2023-03-06T17:37:45.581Z,15.73
2023-03-06T17:40:16.270Z,15.07
2023-03-06T17:42:44.355Z,15.07
2023-03-06T17:45:13.920Z,15.82
2023-03-06T17:47:42.621Z,15.25
2023-03-06T17:50:12.025Z,15.10
2023-03-06T17:52:40.060Z,15.32
2023-03-06T17:55:09.619Z,15.70
2023-03-06T17:57:37.706Z,15.68
2023-03-06T18:00:07.154Z,17.23
2023-03-06T18:02:37.402Z,15.73
2023-03-06T18:05:05.967Z,15.52
2023-03-06T18:07:34.051Z,15.77
2023-03-06T18:10:02.585Z,16.17
2023-03-06T18:12:30.631Z,17.10
2023-03-06T18:14:58.685Z,18.85
2023-03-06T18:17:27.398Z,17.77
2023-03-06T18:19:57.088Z,17.40
2023-03-06T18:22:25.223Z,16.95
2023-03-06T18:24:53.529Z,17.67
2023-03-06T18:27:21.953Z,17.60
2023-03-06T18:29:52.215Z,20.52
2023-03-06T18:32:20.530Z,18.52
2023-03-06T18:34:50.678Z,16.75
2023-03-06T18:37:20.453Z,15.70
2023-03-06T18:39:48.646Z,16.55
2023-03-06T18:42:16.936Z,15.23
2023-03-06T18:44:48.023Z,15.32
2023-03-06T18:47:16.456Z,17.10
2023-03-06T18:49:46.219Z,16.33
2023-03-06T18:52:14.579Z,15.10
2023-03-06T18:54:44.087Z,15.65
2023-03-06T18:57:12.370Z,15.93
2023-03-06T18:59:40.941Z,15.93
2023-03-06T19:02:09.574Z,14.77
2023-03-06T19:04:38.388Z,14.15
2023-03-06T19:07:06.916Z,13.20
2023-03-06T19:09:35.031Z,13.75
2023-03-06T19:12:04.892Z,13.75
2023-03-06T19:14:33.106Z,13.25
2023-03-06T19:17:01.913Z,13.55
2023-03-06T19:19:29.903Z,15.07
2023-03-06T19:21:59.445Z,14.27
2023-03-06T19:24:27.791Z,12.10
2023-03-06T19:26:55.545Z,19.30
2023-03-06T19:29:25.530Z,14.55
2023-03-06T19:31:53.293Z,11.90
2023-03-06T19:34:21.529Z,14.13
2023-03-06T19:36:52.150Z,13.50
2023-03-06T19:39:20.215Z,12.32
2023-03-06T19:41:48.752Z,11.93
2023-03-06T19:44:18.101Z,13.57
2023-03-06T19:46:47.574Z,12.05
2023-03-06T19:49:18.708Z,14.07
2023-03-06T19:51:47.053Z,12.20
2023-03-06T19:54:15.535Z,12.75
2023-03-06T19:56:44.230Z,12.52
2023-03-06T19:59:12.325Z,15.13
2023-03-06T20:01:40.662Z,11.63
2023-03-06T20:04:10.850Z,11.63
2023-03-06T20:06:39.194Z,11.30
2023-03-06T20:09:09.493Z,11.38
2023-03-06T20:11:37.784Z,11.07
2023-03-06T20:14:07.743Z,11.48
2023-03-06T20:16:37.893Z,13.55
2023-03-06T20:19:07.142Z,11.02
2023-03-06T20:21:38.512Z,11.75
2023-03-06T20:24:07.626Z,11.35
2023-03-06T20:26:36.999Z,11.00
2023-03-06T20:29:06.141Z,10.43
2023-03-06T20:31:34.666Z,10.50
2023-03-06T20:34:02.937Z,9.85
2023-03-06T20:36:32.928Z,9.90
2023-03-06T20:39:03.936Z,13.95
2023-03-06T20:41:33.145Z,9.95
2023-03-06T20:44:01.707Z,10.27
2023-03-06T20:46:30.375Z,10.00
2023-03-06T20:49:00.212Z,9.60
2023-03-06T20:51:30.265Z,9.57
2023-03-06T20:53:59.199Z,8.95
2023-03-06T20:56:31.191Z,8.23
2023-03-06T20:58:59.674Z,8.55
2023-03-06T21:01:29.072Z,8.63
2023-03-06T21:03:58.584Z,8.32
2023-03-06T21:06:29.015Z,7.63
2023-03-06T21:08:58.084Z,8.07
2023-03-06T21:11:26.907Z,8.43
2023-03-06T21:13:56.556Z,8.37
2023-03-06T21:18:55.807Z,8.10
2023-03-06T21:21:25.886Z,8.57
2023-03-06T21:23:53.813Z,7.95
2023-03-06T21:26:23.448Z,8.40
2023-03-06T21:31:22.384Z,7.95
2023-03-06T21:33:51.483Z,8.48
2023-03-06T21:36:21.479Z,9.30
2023-03-06T21:38:51.497Z,8.85
2023-03-06T21:41:21.800Z,9.18
2023-03-06T21:43:49.911Z,9.25
2023-03-06T21:46:18.141Z,8.95
2023-03-06T21:48:47.339Z,8.77
2023-03-06T21:51:18.645Z,9.32
2023-03-06T21:53:48.376Z,9.00
2023-03-06T21:56:18.844Z,9.55
2023-03-06T21:58:46.793Z,8.95
2023-03-06T22:01:18.000Z,9.27
2023-03-06T22:03:47.717Z,9.85
2023-03-06T22:06:18.156Z,8.98
2023-03-06T22:08:46.804Z,10.98
2023-03-06T22:11:17.011Z,9.45
2023-03-06T22:13:45.341Z,8.23
2023-03-06T22:16:13.880Z,8.85
2023-03-06T22:18:46.209Z,8.57
2023-03-06T22:21:17.676Z,8.50
2023-03-06T22:23:50.099Z,9.02
2023-03-06T22:26:18.873Z,9.30
2023-03-06T22:28:46.855Z,9.17
2023-03-06T22:31:18.234Z,8.85
2023-03-06T22:33:46.428Z,9.02
2023-03-06T22:36:17.164Z,9.55
2023-03-06T22:38:47.666Z,9.95
2023-03-06T22:41:17.996Z,10.25
2023-03-06T22:43:46.039Z,9.90
2023-03-06T22:46:16.433Z,9.00
2023-03-06T22:48:44.890Z,10.13
2023-03-06T22:51:16.478Z,10.00
2023-03-06T22:53:45.160Z,9.55
2023-03-06T22:56:16.576Z,9.18
2023-03-06T22:58:44.990Z,8.73
2023-03-06T23:01:15.987Z,8.98
2023-03-06T23:03:46.660Z,8.45
2023-03-06T23:06:17.869Z,8.38
2023-03-06T23:08:50.915Z,8.40
2023-03-06T23:11:20.154Z,7.97
2023-03-06T23:13:48.280Z,8.43
2023-03-06T23:16:16.990Z,7.93
2023-03-06T23:18:45.131Z,7.67
2023-03-06T23:21:17.514Z,7.80
2023-03-06T23:23:49.488Z,8.30
2023-03-06T23:26:19.720Z,8.77
2023-03-06T23:28:48.175Z,8.10
2023-03-06T23:31:18.401Z,7.05
2023-03-06T23:33:47.197Z,6.50
2023-03-06T23:36:18.466Z,7.13
2023-03-06T23:38:47.603Z,6.78
2023-03-06T23:41:18.134Z,6.40
2023-03-06T23:43:47.317Z,5.80
2023-03-06T23:46:16.207Z,4.95
2023-03-06T23:48:45.405Z,5.22
2023-03-06T23:51:18.139Z,5.65
2023-03-06T23:53:47.386Z,4.97
2023-03-06T23:56:15.707Z,5.45
2023-03-06T23:58:44.445Z,5.57
